| time (UTC) | temp F | wind direction | speed MPH | gust MPH | rain 1hr in | rain 24hr in | rain mn in | humidity % | barometer mb |
| 20260508181542 | 59 | 258 | 0.0 | 4.0 | 0.00 | 0.00 | 0.00 | 62 | 1012.7 |
| 20260508180039 | 61 | 119 | 0.0 | 3.0 | 0.00 | 0.00 | 0.00 | 62 | 1012.7 |
| 20260508174555 | 58 | 0 | 1.0 | 4.0 | 0.00 | 0.00 | 0.00 | 64 | 1013.0 |
| 20260508173038 | 59 | 0 | 0.0 | 3.0 | 0.00 | 0.00 | 0.00 | 64 | 1012.8 |
| 20260508171543 | 60 | 53 | 0.0 | 5.0 | 0.00 | 0.00 | 0.00 | 61 | 1012.7 |
| 20260508170043 | 61 | 0 | 0.0 | 3.0 | 0.00 | 0.00 | 0.00 | 61 | 1012.9 |
| 20260508164546 | 62 | 255 | 0.0 | 5.0 | 0.00 | 0.00 | 0.00 | 59 | 1013.0 |
| 20260508163105 | 63 | 145 | 0.0 | 7.0 | 0.00 | 0.00 | 0.00 | 55 | 1012.9 |
| 20260508161538 | 62 | 0 | 1.0 | 6.0 | 0.00 | 0.00 | 0.00 | 57 | 1013.0 |
| 20260508160043 | 62 | 226 | 1.0 | 4.0 | 0.00 | 0.00 | 0.00 | 55 | 1013.0 |
| 20260508154548 | 63 | 108 | 0.0 | 3.0 | 0.00 | 0.00 | 0.00 | 56 | 1013.2 |
| 20260508153040 | 62 | 244 | 0.0 | 3.0 | 0.00 | 0.00 | 0.00 | 59 | 1013.4 |
| 20260508151542 | 60 | 49 | 1.0 | 6.0 | 0.00 | 0.00 | 0.00 | 61 | 1013.4 |
| 20260508150038 | 60 | 0 | 0.0 | 5.0 | 0.00 | 0.00 | 0.00 | 57 | 1013.4 |
| 20260508144539 | 59 | 49 | 0.0 | 3.0 | 0.00 | 0.00 | 0.00 | 59 | 1013.4 |
| 20260508143042 | 57 | 265 | 0.0 | 5.0 | 0.00 | 0.00 | 0.00 | 59 | 1013.5 |
| 20260508141542 | 57 | 146 | 0.0 | 4.0 | 0.00 | 0.00 | 0.00 | 57 | 1013.6 |
| 20260508140041 | 55 | 89 | 1.0 | 5.0 | 0.00 | 0.00 | 0.00 | 60 | 1013.6 |
| 20260508134541 | 54 | 0 | 0.0 | 4.0 | 0.00 | 0.00 | 0.00 | 64 | 1013.7 |
| 20260508133045 | 53 | 102 | 0.0 | 4.0 | 0.00 | 0.00 | 0.00 | 62 | 1013.6 |
| 20260508131548 | 53 | 97 | 0.0 | 3.0 | 0.00 | 0.00 | 0.00 | 71 | 1013.7 |
| 20260508130053 | 50 | 0 | 0.0 | 2.0 | 0.00 | 0.00 | 0.00 | 73 | 1013.9 |
| 20260508124539 | 49 | 0 | 0.0 | 1.0 | 0.00 | 0.00 | 0.00 | 76 | 1013.9 |
| 20260508123039 | 46 | 0 | 0.0 | 1.0 | 0.00 | 0.00 | 0.00 | 80 | 1013.9 |
| 20260508121538 | 44 | 0 | 0.0 | 1.0 | 0.00 | 0.00 | 0.00 | 81 | 1013.9 |
| 20260508120044 | 43 | 0 | 0.0 | 0.0 | 0.00 | 0.00 | 0.00 | 82 | 1013.9 |
| 20260508114541 | 42 | 0 | 0.0 | 0.0 | 0.00 | 0.00 | 0.00 | 82 | 1013.9 |
| 20260508113048 | 41 | 0 | 0.0 | 0.0 | 0.00 | 0.00 | 0.00 | 85 | 1013.8 |
| 20260508111539 | 41 | 0 | 0.0 | 0.0 | 0.00 | 0.00 | 0.00 | 89 | 1013.6 |
| 20260508110052 | 40 | 0 | 0.0 | 0.0 | 0.00 | 0.00 | 0.00 | 89 | 1013.6 |
| 20260508104536 | 40 | 0 | 0.0 | 0.0 | 0.00 | 0.00 | 0.00 | 88 | 1013.3 |
| 20260508103043 | 40 | 0 | 0.0 | 0.0 | 0.00 | 0.00 | 0.00 | 88 | 1013.3 |
| 20260508101550 | 41 | 0 | 0.0 | 0.0 | 0.00 | 0.00 | 0.00 | 86 | 1013.4 |
| 20260508100040 | 41 | 0 | 0.0 | 0.0 | 0.00 | 0.00 | 0.00 | 84 | 1013.4 |
| 20260508094551 | 41 | 0 | 0.0 | 0.0 | 0.00 | 0.00 | 0.00 | 84 | 1013.5 |
| 20260508093052 | 41 | 0 | 0.0 | 0.0 | 0.00 | 0.00 | 0.00 | 85 | 1013.5 |
| 20260508091538 | 41 | 0 | 0.0 | 0.0 | 0.00 | 0.00 | 0.00 | 87 | 1013.5 |
| 20260508090053 | 41 | 0 | 0.0 | 0.0 | 0.00 | 0.00 | 0.00 | 87 | 1013.7 |
| 20260508084539 | 41 | 0 | 0.0 | 0.0 | 0.00 | 0.00 | 0.00 | 86 | 1013.7 |
| 20260508083041 | 41 | 0 | 0.0 | 0.0 | 0.00 | 0.00 | 0.00 | 87 | 1013.7 |
| 20260508081539 | 41 | 0 | 0.0 | 0.0 | 0.00 | 0.00 | 0.00 | 87 | 1013.4 |
| 20260508080040 | 40 | 0 | 0.0 | 0.0 | 0.00 | 0.00 | 0.00 | 87 | 1013.4 |
| 20260508074541 | 40 | 0 | 0.0 | 0.0 | 0.00 | 0.00 | 0.00 | 88 | 1013.3 |
| 20260508073043 | 40 | 0 | 0.0 | 0.0 | 0.00 | 0.00 | 0.00 | 87 | 1013.2 |
| 20260508071542 | 39 | 0 | 0.0 | 0.0 | 0.00 | 0.00 | 0.00 | 88 | 1013.3 |
| 20260508070041 | 39 | 0 | 0.0 | 0.0 | 0.00 | 0.00 | 0.00 | 88 | 1013.3 |
| 20260508064538 | 39 | 0 | 0.0 | 0.0 | 0.00 | 0.00 | 0.00 | 89 | 1013.4 |
| 20260508063037 | 39 | 0 | 0.0 | 0.0 | 0.00 | 0.00 | 0.00 | 88 | 1013.6 |
| 20260508061542 | 38 | 0 | 0.0 | 0.0 | 0.00 | 0.00 | 0.00 | 87 | 1013.6 |
| 20260508060043 | 38 | 0 | 0.0 | 0.0 | 0.00 | 0.00 | 0.00 | 87 | 1013.6 |
| 20260508054602 | 38 | 0 | 0.0 | 0.0 | 0.00 | 0.00 | 0.00 | 88 | 1013.7 |
| 20260508053041 | 38 | 0 | 0.0 | 0.0 | 0.00 | 0.00 | 0.00 | 87 | 1014.0 |
| 20260508051539 | 38 | 0 | 0.0 | 0.0 | 0.00 | 0.00 | 0.00 | 86 | 1014.1 |
| 20260508050043 | 39 | 0 | 0.0 | 0.0 | 0.00 | 0.00 | 0.00 | 85 | 1014.2 |
| 20260508044553 | 39 | 0 | 0.0 | 0.0 | 0.00 | 0.00 | 0.00 | 84 | 1014.1 |
| 20260508043039 | 39 | 0 | 0.0 | 0.0 | 0.00 | 0.00 | 0.00 | 83 | 1013.9 |
| 20260508041548 | 40 | 0 | 0.0 | 0.0 | 0.00 | 0.00 | 0.00 | 82 | 1013.9 |
| 20260508040052 | 41 | 0 | 0.0 | 0.0 | 0.00 | 0.00 | 0.00 | 81 | 1013.8 |
| 20260508034542 | 41 | 0 | 0.0 | 0.0 | 0.00 | 0.00 | 0.00 | 78 | 1013.8 |
| 20260508033040 | 42 | 0 | 0.0 | 0.0 | 0.00 | 0.00 | 0.00 | 77 | 1013.9 |
| 20260508031553 | 43 | 0 | 0.0 | 0.0 | 0.00 | 0.00 | 0.00 | 75 | 1014.0 |
| 20260508030051 | 44 | 0 | 0.0 | 0.0 | 0.00 | 0.00 | 0.00 | 73 | 1014.0 |
| 20260508024536 | 45 | 0 | 0.0 | 0.0 | 0.00 | 0.00 | 0.00 | 71 | 1014.0 |
| 20260508023046 | 46 | 0 | 0.0 | 0.0 | 0.00 | 0.00 | 0.00 | 69 | 1013.9 |
| 20260508021539 | 47 | 0 | 0.0 | 0.0 | 0.00 | 0.00 | 0.00 | 67 | 1013.8 |
| 20260508020038 | 48 | 0 | 0.0 | 0.0 | 0.00 | 0.00 | 0.00 | 65 | 1013.7 |
| 20260508014539 | 48 | 0 | 0.0 | 0.0 | 0.00 | 0.00 | 0.00 | 63 | 1013.5 |
| 20260508013037 | 49 | 0 | 0.0 | 0.0 | 0.00 | 0.00 | 0.00 | 60 | 1013.3 |
| 20260508011544 | 50 | 0 | 0.0 | 0.0 | 0.00 | 0.00 | 0.00 | 56 | 1013.1 |
| 20260508010042 | 51 | 0 | 0.0 | 2.0 | 0.00 | 0.00 | 0.00 | 54 | 1012.7 |
| 20260508004540 | 51 | 0 | 0.0 | 2.0 | 0.00 | 0.00 | 0.00 | 53 | 1012.6 |
| 20260508003036 | 52 | 167 | 0.0 | 3.0 | 0.00 | 0.00 | 0.00 | 54 | 1012.3 |
| 20260508001537 | 53 | 91 | 0.0 | 6.0 | 0.00 | 0.00 | 0.00 | 50 | 1012.0 |
| 20260508000042 | 54 | 262 | 0.0 | 5.0 | 0.00 | 0.00 | 0.00 | 50 | 1011.7 |
| 20260507234540 | 54 | 68 | 1.0 | 7.0 | 0.00 | 0.00 | 0.00 | 49 | 1011.7 |
| 20260507233040 | 55 | 0 | 0.0 | 2.0 | 0.00 | 0.00 | 0.00 | 52 | 1011.5 |
| 20260507231544 | 55 | 124 | 1.0 | 8.0 | 0.00 | 0.00 | 0.00 | 50 | 1011.3 |
| 20260507230041 | 56 | 0 | 0.0 | 5.0 | 0.00 | 0.00 | 0.00 | 49 | 1011.1 |
| 20260507224554 | 56 | 29 | 1.0 | 7.0 | 0.00 | 0.00 | 0.00 | 47 | 1011.1 |
| 20260507223044 | 57 | 0 | 1.0 | 7.0 | 0.00 | 0.00 | 0.00 | 45 | 1010.9 |
| 20260507221540 | 58 | 94 | 0.0 | 3.0 | 0.00 | 0.00 | 0.00 | 46 | 1010.8 |
| 20260507220042 | 59 | 160 | 0.0 | 4.0 | 0.00 | 0.00 | 0.00 | 44 | 1010.6 |
| 20260507214541 | 60 | 266 | 0.0 | 6.0 | 0.00 | 0.00 | 0.00 | 45 | 1010.4 |
| 20260507213047 | 61 | 56 | 1.0 | 5.0 | 0.00 | 0.00 | 0.00 | 42 | 1010.2 |
| 20260507211539 | 61 | 247 | 1.0 | 5.0 | 0.00 | 0.00 | 0.00 | 41 | 1010.4 |
| 20260507210106 | 59 | 0 | 0.0 | 4.0 | 0.00 | 0.00 | 0.00 | 44 | 1010.2 |
| 20260507204537 | 60 | 125 | 0.0 | 5.0 | 0.00 | 0.00 | 0.00 | 43 | 1010.2 |
| 20260507203035 | 61 | 233 | 1.0 | 4.0 | 0.00 | 0.00 | 0.00 | 41 | 1010.1 |
| 20260507201539 | 62 | 0 | 0.0 | 5.0 | 0.00 | 0.00 | 0.00 | 43 | 1010.2 |
| 20260507200052 | 62 | 70 | 1.0 | 7.0 | 0.00 | 0.00 | 0.00 | 40 | 1010.4 |
| 20260507194537 | 64 | 0 | 1.0 | 7.0 | 0.00 | 0.00 | 0.00 | 41 | 1010.6 |
| 20260507193102 | 64 | 253 | 0.0 | 5.0 | 0.00 | 0.00 | 0.00 | 44 | 1010.6 |
| 20260507191550 | 62 | 0 | 1.0 | 7.0 | 0.00 | 0.00 | 0.00 | 46 | 1010.7 |
| 20260507190041 | 60 | 86 | 0.0 | 5.0 | 0.00 | 0.00 | 0.00 | 46 | 1010.8 |
| 20260507184539 | 62 | 229 | 0.0 | 6.0 | 0.00 | 0.00 | 0.00 | 43 | 1010.8 |
| 20260507183040 | 62 | 0 | 0.0 | 4.0 | 0.00 | 0.00 | 0.00 | 47 | 1010.9 |